createdAt,value
2024-01-10T00:00:04.491Z,86.80
2024-01-10T00:01:04.562Z,83.40
2024-01-10T00:02:04.554Z,86.30
2024-01-10T00:03:04.463Z,84.70
2024-01-10T00:04:04.512Z,90.00
2024-01-10T00:05:04.572Z,82.40
2024-01-10T00:06:05.395Z,82.70
2024-01-10T00:07:04.450Z,88.70
2024-01-10T00:08:04.480Z,87.60
2024-01-10T00:09:04.405Z,83.40
2024-01-10T00:10:04.431Z,78.50
2024-01-10T00:11:04.467Z,84.60
2024-01-10T00:12:04.409Z,86.80
2024-01-10T00:13:04.410Z,84.50
2024-01-10T00:14:04.570Z,83.90
2024-01-10T00:15:04.371Z,85.60
2024-01-10T00:16:04.362Z,83.10
2024-01-10T00:17:04.411Z,83.00
2024-01-10T00:18:04.453Z,78.40
2024-01-10T00:19:05.449Z,80.30
2024-01-10T00:20:04.330Z,85.10
2024-01-10T00:21:04.304Z,81.40
2024-01-10T00:22:04.298Z,78.80
2024-01-10T00:23:04.349Z,88.40
2024-01-10T00:24:04.268Z,86.60
2024-01-10T00:25:04.245Z,90.90
2024-01-10T00:26:04.315Z,87.90
2024-01-10T00:27:04.261Z,88.10
2024-01-10T00:28:04.238Z,86.40
2024-01-10T00:29:05.232Z,84.30
2024-01-10T00:30:04.318Z,83.10
2024-01-10T00:31:04.322Z,84.90
2024-01-10T00:32:04.277Z,82.30
2024-01-10T00:33:04.372Z,80.70
2024-01-10T00:34:04.240Z,84.60
2024-01-10T00:35:04.348Z,80.10
2024-01-10T00:36:04.190Z,83.00
2024-01-10T00:37:04.141Z,83.80
2024-01-10T00:38:04.237Z,84.00
2024-01-10T00:39:04.147Z,83.80
2024-01-10T00:40:04.116Z,85.10
2024-01-10T00:41:04.235Z,82.50
2024-01-10T00:42:04.083Z,78.10
2024-01-10T00:43:04.103Z,83.80
2024-01-10T00:44:04.147Z,82.80
2024-01-10T00:45:04.206Z,86.60
2024-01-10T00:46:04.082Z,81.40
2024-01-10T00:47:04.212Z,83.00
2024-01-10T00:48:04.213Z,78.70
2024-01-10T00:49:04.137Z,88.50
2024-01-10T00:50:04.067Z,82.80
2024-01-10T00:51:04.023Z,81.30
2024-01-10T00:52:03.986Z,80.00
2024-01-10T00:53:04.029Z,81.10
2024-01-10T00:54:03.973Z,77.50
2024-01-10T00:55:04.000Z,82.90
2024-01-10T00:56:04.211Z,82.30
2024-01-10T00:57:03.978Z,82.40
2024-01-10T00:58:04.005Z,83.30
2024-01-10T00:59:04.004Z,80.90
2024-01-10T01:00:03.933Z,82.20
2024-01-10T01:01:03.932Z,81.90
2024-01-10T01:02:03.946Z,79.10
2024-01-10T01:03:03.963Z,75.90
2024-01-10T01:04:03.889Z,82.50
2024-01-10T01:05:04.007Z,83.80
2024-01-10T01:06:04.060Z,83.90
2024-01-10T01:07:03.892Z,87.70
2024-01-10T01:08:03.940Z,80.90
2024-01-10T01:09:03.906Z,83.40
2024-01-10T01:10:03.834Z,86.40
2024-01-10T01:11:03.851Z,81.90
2024-01-10T01:12:03.815Z,86.60
2024-01-10T01:13:03.833Z,84.30
2024-01-10T01:14:03.832Z,88.30
2024-01-10T01:15:03.846Z,83.10
2024-01-10T01:16:03.780Z,88.30
2024-01-10T01:17:03.819Z,81.90
2024-01-10T01:18:03.927Z,81.60
2024-01-10T01:19:03.870Z,80.20
2024-01-10T01:20:03.786Z,85.20
2024-01-10T01:21:03.812Z,88.00
2024-01-10T01:22:03.774Z,81.70
2024-01-10T01:23:03.798Z,85.00
2024-01-10T01:24:03.762Z,87.20
2024-01-10T01:25:03.748Z,81.40
2024-01-10T01:26:03.752Z,89.60
2024-01-10T01:27:03.717Z,82.90
2024-01-10T01:28:03.723Z,83.80
2024-01-10T01:29:03.813Z,85.80
2024-01-10T01:30:03.769Z,86.70
2024-01-10T01:31:03.764Z,80.10
2024-01-10T01:32:03.759Z,87.30
2024-01-10T01:33:03.687Z,80.10
2024-01-10T01:34:03.764Z,82.20
2024-01-10T01:35:03.661Z,84.70
2024-01-10T01:36:03.597Z,86.90
2024-01-10T01:37:03.615Z,85.60
2024-01-10T01:38:03.611Z,85.90
2024-01-10T01:39:03.630Z,87.00
2024-01-10T01:40:03.636Z,85.00
2024-01-10T01:41:03.601Z,81.80
2024-01-10T01:42:03.549Z,82.00
2024-01-10T01:43:03.569Z,86.90
2024-01-10T01:44:03.614Z,81.80
2024-01-10T01:45:03.534Z,84.10
2024-01-10T01:46:03.501Z,84.70
2024-01-10T01:47:03.577Z,76.70
2024-01-10T01:48:03.653Z,87.10
2024-01-10T01:49:03.604Z,83.10
2024-01-10T01:50:03.612Z,87.10
2024-01-10T01:51:03.455Z,84.00
2024-01-10T01:52:04.011Z,81.50
2024-01-10T01:53:03.552Z,88.90
2024-01-10T01:54:03.469Z,87.60
2024-01-10T01:55:03.443Z,84.00
2024-01-10T01:56:03.524Z,82.80
2024-01-10T01:57:03.415Z,77.30
2024-01-10T01:58:03.398Z,84.30
2024-01-10T01:59:03.487Z,86.10
2024-01-10T02:00:03.430Z,85.20
2024-01-10T02:01:03.455Z,83.10
2024-01-10T02:02:03.473Z,81.80
2024-01-10T02:03:03.631Z,83.40
2024-01-10T02:04:03.445Z,90.10
2024-01-10T02:05:03.436Z,82.30
2024-01-10T02:06:03.380Z,84.80
2024-01-10T02:07:03.464Z,89.20
2024-01-10T02:08:03.360Z,85.00
2024-01-10T02:09:03.306Z,84.30
2024-01-10T02:10:03.352Z,82.70
2024-01-10T02:11:03.317Z,85.90
2024-01-10T02:12:03.291Z,85.80
2024-01-10T02:13:03.285Z,87.30
2024-01-10T02:14:03.318Z,83.20
2024-01-10T02:15:03.308Z,84.60
2024-01-10T02:16:03.281Z,84.20
2024-01-10T02:17:03.295Z,82.30
2024-01-10T02:18:03.279Z,85.00
2024-01-10T02:19:03.364Z,87.40
2024-01-10T02:20:03.280Z,89.20
2024-01-10T02:21:03.211Z,85.30
2024-01-10T02:22:03.192Z,86.60
2024-01-10T02:23:03.209Z,86.00
2024-01-10T02:24:03.163Z,85.50
2024-01-10T02:25:03.169Z,84.20
2024-01-10T02:26:03.183Z,84.40
2024-01-10T02:27:03.140Z,82.90
2024-01-10T02:28:03.153Z,82.40
2024-01-10T02:29:03.175Z,84.70
2024-01-10T02:30:03.140Z,85.00
2024-01-10T02:31:03.242Z,82.90
2024-01-10T02:32:03.120Z,89.60
2024-01-10T02:33:03.136Z,88.10
2024-01-10T02:34:03.093Z,87.00
2024-01-10T02:35:03.184Z,82.70
2024-01-10T02:36:03.078Z,84.30
2024-01-10T02:37:03.058Z,84.60
2024-01-10T02:38:03.081Z,90.60
2024-01-10T02:39:03.084Z,86.10
2024-01-10T02:40:03.125Z,89.50
2024-01-10T02:41:03.050Z,84.70
2024-01-10T02:42:03.006Z,83.80
2024-01-10T02:43:03.016Z,85.80
2024-01-10T02:44:03.115Z,85.00
2024-01-10T02:45:03.002Z,91.00
2024-01-10T02:46:02.960Z,89.00
2024-01-10T02:47:02.974Z,86.10
2024-01-10T02:48:03.038Z,85.40
2024-01-10T02:49:02.983Z,85.30
2024-01-10T02:50:02.949Z,85.40
2024-01-10T02:51:02.936Z,83.60
2024-01-10T02:52:02.908Z,85.60
2024-01-10T02:53:02.966Z,90.20
2024-01-10T02:54:02.938Z,85.90
2024-01-10T02:55:02.919Z,81.40
2024-01-10T02:56:02.919Z,86.00
2024-01-10T02:57:02.871Z,84.30
2024-01-10T02:58:02.930Z,81.90
2024-01-10T02:59:02.899Z,83.70
2024-01-10T03:00:02.895Z,85.40
2024-01-10T03:01:02.991Z,86.30
2024-01-10T03:02:02.867Z,88.60
2024-01-10T03:03:02.812Z,86.90
2024-01-10T03:04:02.844Z,82.60
2024-01-10T03:05:03.053Z,86.10
2024-01-10T03:06:02.830Z,85.50
2024-01-10T03:07:02.800Z,87.60
2024-01-10T03:08:02.868Z,84.00
2024-01-10T03:09:02.764Z,87.00
2024-01-10T03:10:02.802Z,83.80
2024-01-10T03:11:02.875Z,83.20
2024-01-10T03:12:02.751Z,87.90
2024-01-10T03:13:02.728Z,86.70
2024-01-10T03:14:02.787Z,86.90
2024-01-10T03:15:02.769Z,78.20
2024-01-10T03:16:02.706Z,87.40
2024-01-10T03:17:02.723Z,86.40
2024-01-10T03:18:02.712Z,79.90
2024-01-10T03:19:02.747Z,82.70
2024-01-10T03:20:02.740Z,85.80
2024-01-10T03:21:02.661Z,85.60
2024-01-10T03:22:02.651Z,87.00
2024-01-10T03:23:02.756Z,82.80
2024-01-10T03:24:02.655Z,84.70
2024-01-10T03:25:02.653Z,77.90
2024-01-10T03:26:02.648Z,85.00
2024-01-10T03:27:02.679Z,86.70
2024-01-10T03:28:02.568Z,86.30
2024-01-10T03:29:02.603Z,86.90
2024-01-10T03:30:03.733Z,86.30
2024-01-10T03:31:02.618Z,96.80
2024-01-10T03:32:02.632Z,90.30
2024-01-10T03:33:02.696Z,91.20
2024-01-10T03:34:02.733Z,93.00
2024-01-10T03:35:02.676Z,86.90
2024-01-10T03:36:02.498Z,86.10
2024-01-10T03:37:02.502Z,85.60
2024-01-10T03:38:02.502Z,91.30
2024-01-10T03:39:02.500Z,86.70
2024-01-10T03:40:02.685Z,89.60
2024-01-10T03:41:02.571Z,90.10
2024-01-10T03:42:02.509Z,86.70
2024-01-10T03:43:02.532Z,90.60
2024-01-10T03:44:03.776Z,82.20
2024-01-10T03:45:02.438Z,86.80
2024-01-10T03:46:02.394Z,89.60
2024-01-10T03:47:02.478Z,88.80
2024-01-10T03:48:02.447Z,85.70
2024-01-10T03:49:02.550Z,90.70
2024-01-10T03:50:02.516Z,86.40
2024-01-10T03:51:02.362Z,89.80
2024-01-10T03:52:02.364Z,83.10
2024-01-10T03:53:02.374Z,83.60
2024-01-10T03:54:02.336Z,88.70
2024-01-10T03:55:02.374Z,88.60
2024-01-10T03:56:02.387Z,89.00
2024-01-10T03:57:02.322Z,92.10
2024-01-10T03:58:02.323Z,84.50
2024-01-10T03:59:02.436Z,90.10
2024-01-10T04:00:02.314Z,85.40
2024-01-10T04:01:03.007Z,91.00
2024-01-10T04:02:02.349Z,91.10
2024-01-10T04:03:02.311Z,88.50
2024-01-10T04:04:02.237Z,85.60
2024-01-10T04:05:02.325Z,87.60
2024-01-10T04:06:02.335Z,87.60
2024-01-10T04:07:02.267Z,92.50
2024-01-10T04:08:02.234Z,86.00
2024-01-10T04:09:02.216Z,89.10
2024-01-10T04:10:02.212Z,88.30
2024-01-10T04:11:02.243Z,90.60
2024-01-10T04:12:02.215Z,84.40
2024-01-10T04:13:02.179Z,90.90
2024-01-10T04:14:02.226Z,91.40
2024-01-10T04:15:02.172Z,89.80
2024-01-10T04:16:02.133Z,94.30
2024-01-10T04:17:02.178Z,90.90
2024-01-10T04:18:02.179Z,87.90
2024-01-10T04:19:02.290Z,88.60
2024-01-10T04:20:02.227Z,88.20
2024-01-10T04:21:02.163Z,91.50
2024-01-10T04:22:02.110Z,92.10
2024-01-10T04:23:02.095Z,90.40
2024-01-10T04:24:02.108Z,89.70
2024-01-10T04:25:03.230Z,90.50
2024-01-10T04:26:02.130Z,86.20
2024-01-10T04:27:02.073Z,88.00
2024-01-10T04:28:03.311Z,84.20
2024-01-10T04:29:02.184Z,89.20
2024-01-10T04:30:02.103Z,84.50
2024-01-10T04:31:02.072Z,88.10
2024-01-10T04:32:02.003Z,90.10
2024-01-10T04:33:02.041Z,92.80
2024-01-10T04:34:02.049Z,89.20
2024-01-10T04:35:02.064Z,91.90
2024-01-10T04:36:02.046Z,90.60
2024-01-10T04:37:01.949Z,90.70
2024-01-10T04:38:02.076Z,85.00
2024-01-10T04:39:01.933Z,93.20
2024-01-10T04:40:02.016Z,85.70
2024-01-10T04:41:01.980Z,87.50
2024-01-10T04:42:01.908Z,88.80
2024-01-10T04:43:02.015Z,93.60
2024-01-10T04:44:01.918Z,91.60
2024-01-10T04:45:01.890Z,96.80
2024-01-10T04:46:01.880Z,93.60
2024-01-10T04:47:01.937Z,89.30
2024-01-10T04:48:01.976Z,89.20
2024-01-10T04:49:01.902Z,89.60
2024-01-10T04:50:01.949Z,89.90
2024-01-10T04:51:01.878Z,86.70
2024-01-10T04:52:01.822Z,92.60
2024-01-10T04:53:01.849Z,98.30
2024-01-10T04:54:01.803Z,90.60
2024-01-10T04:55:01.793Z,95.90
2024-01-10T04:56:01.814Z,94.20
2024-01-10T04:57:01.769Z,93.20
2024-01-10T04:58:01.812Z,94.80
2024-01-10T04:59:01.779Z,94.60
2024-01-10T05:00:01.791Z,93.00
2024-01-10T05:01:01.817Z,92.20
2024-01-10T05:02:01.768Z,88.60
2024-01-10T05:03:01.737Z,91.20
2024-01-10T05:04:01.692Z,90.90
2024-01-10T05:05:01.834Z,93.30
2024-01-10T05:06:01.838Z,89.70
2024-01-10T05:07:01.680Z,91.40
2024-01-10T05:08:01.737Z,94.20
2024-01-10T05:09:01.695Z,88.80
2024-01-10T05:10:01.728Z,97.00
2024-01-10T05:11:01.813Z,92.40
2024-01-10T05:12:01.663Z,98.20
2024-01-10T05:13:01.645Z,93.00
2024-01-10T05:14:01.680Z,98.40
2024-01-10T05:15:01.642Z,91.80
2024-01-10T05:16:02.741Z,92.10
2024-01-10T05:17:01.648Z,92.60
2024-01-10T05:18:01.583Z,97.20
2024-01-10T05:19:01.611Z,89.40
2024-01-10T05:20:01.619Z,90.20
2024-01-10T05:21:01.572Z,92.90
2024-01-10T05:22:03.427Z,96.50
2024-01-10T05:23:01.576Z,94.10
2024-01-10T05:24:01.511Z,94.50
2024-01-10T05:25:01.551Z,94.60
2024-01-10T05:26:01.559Z,87.90
2024-01-10T05:27:01.494Z,95.30
2024-01-10T05:28:01.474Z,91.30
2024-01-10T05:29:01.551Z,94.60
2024-01-10T05:30:01.499Z,88.90
2024-01-10T05:31:01.715Z,98.00
2024-01-10T05:32:01.489Z,97.70
2024-01-10T05:33:01.561Z,95.20
2024-01-10T05:34:01.505Z,92.70
2024-01-10T05:35:01.574Z,93.80
2024-01-10T05:36:01.457Z,95.30
2024-01-10T05:37:01.451Z,92.70
2024-01-10T05:38:01.428Z,96.20
2024-01-10T05:39:01.410Z,97.60
2024-01-10T05:40:01.387Z,92.90
2024-01-10T05:41:01.428Z,86.20
2024-01-10T05:42:01.361Z,92.10
2024-01-10T05:43:01.359Z,89.50
2024-01-10T05:44:01.407Z,91.40
2024-01-10T05:45:01.336Z,98.40
2024-01-10T05:46:01.392Z,92.50
2024-01-10T05:47:01.329Z,91.70
2024-01-10T05:48:01.351Z,91.90
2024-01-10T05:49:01.485Z,93.10
2024-01-10T05:50:01.476Z,96.60
2024-01-10T05:51:01.276Z,92.50
2024-01-10T05:52:01.294Z,93.40
2024-01-10T05:53:01.385Z,89.70
2024-01-10T05:54:01.268Z,92.50
2024-01-10T05:55:01.291Z,96.30
2024-01-10T05:56:01.260Z,96.50
2024-01-10T05:57:01.339Z,93.80
2024-01-10T05:58:01.225Z,96.10
2024-01-10T05:59:01.215Z,91.20
2024-01-10T06:00:01.202Z,93.90
2024-01-10T06:01:01.227Z,95.60
2024-01-10T06:02:01.277Z,93.70
2024-01-10T06:03:01.177Z,93.30
2024-01-10T06:04:01.179Z,96.00
2024-01-10T06:05:04.261Z,91.90
2024-01-10T06:06:01.245Z,96.80
2024-01-10T06:07:01.133Z,89.60
2024-01-10T06:08:01.134Z,96.70
2024-01-10T06:09:01.136Z,93.30
2024-01-10T06:10:01.082Z,96.40
2024-01-10T06:11:01.126Z,95.50
2024-01-10T06:12:01.068Z,95.80
2024-01-10T06:13:01.138Z,97.30
2024-01-10T06:14:01.106Z,91.90
2024-01-10T06:15:01.046Z,91.80
2024-01-10T06:16:01.095Z,94.70
2024-01-10T06:17:01.054Z,93.40
2024-01-10T06:18:01.064Z,95.60
2024-01-10T06:19:01.178Z,93.60
2024-01-10T06:20:01.024Z,89.30
2024-01-10T06:21:00.984Z,91.30
2024-01-10T06:22:01.022Z,97.50
2024-01-10T06:23:01.032Z,92.50
2024-01-10T06:24:00.948Z,92.40
2024-01-10T06:25:00.969Z,96.60
2024-01-10T06:26:01.070Z,91.10
2024-01-10T06:27:00.959Z,95.60
2024-01-10T06:28:00.961Z,95.10
2024-01-10T06:29:01.028Z,100.00
2024-01-10T06:30:00.906Z,97.00
2024-01-10T06:31:01.009Z,96.40
2024-01-10T06:32:00.966Z,96.40
2024-01-10T06:33:00.981Z,101.70
2024-01-10T06:34:00.951Z,95.80
2024-01-10T06:35:00.962Z,98.00
2024-01-10T06:36:00.837Z,98.90
2024-01-10T06:37:01.980Z,100.10
2024-01-10T06:38:00.943Z,98.80
2024-01-10T06:39:01.027Z,95.20
2024-01-10T06:40:00.820Z,95.40
2024-01-10T06:41:00.927Z,99.40
2024-01-10T06:42:00.827Z,100.40
2024-01-10T06:43:00.808Z,103.20
2024-01-10T06:44:00.827Z,104.10
2024-01-10T06:45:00.763Z,100.80
2024-01-10T06:46:00.758Z,101.40
2024-01-10T06:47:01.318Z,101.10
2024-01-10T06:48:00.834Z,102.70
2024-01-10T06:49:00.826Z,99.90
2024-01-10T06:50:00.804Z,102.40
2024-01-10T06:51:00.709Z,100.50
2024-01-10T06:52:00.792Z,101.10
2024-01-10T06:53:00.788Z,103.70
2024-01-10T06:54:00.682Z,101.20
2024-01-10T06:55:00.709Z,97.60
2024-01-10T06:56:00.687Z,99.80
2024-01-10T06:57:00.726Z,101.60
2024-01-10T06:58:00.661Z,101.20
2024-01-10T06:59:00.694Z,102.30
2024-01-10T07:00:00.640Z,103.30
2024-01-10T07:01:00.661Z,96.90
2024-01-10T07:02:00.667Z,97.10
2024-01-10T07:03:00.657Z,94.10
2024-01-10T07:04:00.636Z,102.70
2024-01-10T07:05:01.223Z,102.60
2024-01-10T07:06:00.592Z,97.00
2024-01-10T07:07:00.612Z,99.40
2024-01-10T07:08:00.643Z,100.40
2024-01-10T07:09:00.557Z,101.20
2024-01-10T07:10:00.538Z,99.70
2024-01-10T07:11:00.604Z,97.30
2024-01-10T07:12:00.586Z,97.90
2024-01-10T07:13:00.555Z,98.50
2024-01-10T07:14:00.647Z,96.90
2024-01-10T07:15:00.508Z,98.50
2024-01-10T07:16:00.519Z,99.00
2024-01-10T07:17:00.540Z,99.60
2024-01-10T07:18:00.612Z,98.40
2024-01-10T07:19:00.606Z,101.20
2024-01-10T07:20:00.612Z,100.60
2024-01-10T07:21:00.491Z,97.30
2024-01-10T07:22:00.432Z,95.90
2024-01-10T07:23:00.493Z,101.50
2024-01-10T07:24:00.437Z,99.00
2024-01-10T07:25:00.425Z,105.10
2024-01-10T07:26:00.446Z,104.20
2024-01-10T07:27:00.480Z,98.80
2024-01-10T07:28:00.416Z,100.70
2024-01-10T07:29:00.408Z,98.30
2024-01-10T07:30:00.573Z,101.50
2024-01-10T07:31:02.468Z,99.20
2024-01-10T07:32:00.472Z,91.90
2024-01-10T07:33:00.531Z,99.60
2024-01-10T07:34:00.423Z,103.30
2024-01-10T07:35:00.469Z,101.50
2024-01-10T07:36:00.321Z,96.30
2024-01-10T07:37:00.355Z,98.90
2024-01-10T07:38:00.375Z,99.60
2024-01-10T07:39:03.844Z,97.60
2024-01-10T07:40:00.305Z,103.40
2024-01-10T07:41:00.629Z,101.00
2024-01-10T07:42:00.298Z,100.60
2024-01-10T07:43:00.254Z,105.20
2024-01-10T07:44:00.365Z,95.30
2024-01-10T07:45:00.260Z,104.10
2024-01-10T07:46:00.181Z,105.10
2024-01-10T07:47:00.260Z,106.70
2024-01-10T07:48:00.814Z,99.80
2024-01-10T07:49:00.306Z,100.90
2024-01-10T07:50:00.246Z,103.50
2024-01-10T07:51:00.305Z,104.40
2024-01-10T07:52:00.189Z,100.00
2024-01-10T07:53:00.243Z,106.50
2024-01-10T07:54:00.120Z,103.80
2024-01-10T07:55:00.157Z,98.70
2024-01-10T07:56:00.147Z,99.60
2024-01-10T07:57:00.158Z,94.90
2024-01-10T07:58:00.171Z,97.70
2024-01-10T07:59:00.139Z,92.30
2024-01-10T08:00:00.167Z,95.00
2024-01-10T08:01:00.149Z,95.60
2024-01-10T08:02:00.926Z,100.50
2024-01-10T08:03:00.261Z,93.70
2024-01-10T08:04:00.098Z,102.10
2024-01-10T08:05:00.162Z,97.00
2024-01-10T08:06:00.020Z,98.10
2024-01-10T08:07:00.130Z,99.60
2024-01-10T08:08:00.155Z,103.50
2024-01-10T08:09:00.042Z,93.70
2024-01-10T08:09:59.977Z,100.00
2024-01-10T08:11:00.033Z,98.80
2024-01-10T08:11:59.975Z,100.00
2024-01-10T08:13:00.022Z,100.70
2024-01-10T08:13:59.968Z,95.90
2024-01-10T08:14:59.953Z,98.80
2024-01-10T08:15:59.927Z,99.80
2024-01-10T08:16:59.962Z,101.20
2024-01-10T08:18:00.071Z,100.60
2024-01-10T08:19:00.018Z,101.10
2024-01-10T08:19:59.935Z,98.90
2024-01-10T08:20:59.903Z,100.80
2024-01-10T08:21:59.892Z,95.70
2024-01-10T08:22:59.924Z,100.20
2024-01-10T08:23:59.870Z,94.60
2024-01-10T08:24:59.863Z,101.50
2024-01-10T08:26:00.008Z,98.40
2024-01-10T08:26:59.833Z,97.40
2024-01-10T08:27:59.849Z,100.00
2024-01-10T08:28:59.892Z,102.20
2024-01-10T08:29:59.805Z,101.20
2024-01-10T08:31:04.391Z,99.60
2024-01-10T08:31:59.843Z,100.80
2024-01-10T08:33:00.001Z,95.30
2024-01-10T08:33:59.902Z,100.00
2024-01-10T08:34:59.740Z,104.70
2024-01-10T08:35:59.877Z,100.20
2024-01-10T08:36:59.769Z,99.70
2024-01-10T08:37:59.767Z,99.40
2024-01-10T08:38:59.760Z,101.60
2024-01-10T08:39:59.810Z,105.80
2024-01-10T08:40:59.734Z,97.70
2024-01-10T08:41:59.720Z,98.60
2024-01-10T08:42:59.697Z,101.80
2024-01-10T08:43:59.738Z,103.50
2024-01-10T08:44:59.695Z,105.20
2024-01-10T08:45:59.646Z,101.60
2024-01-10T08:46:59.683Z,99.80
2024-01-10T08:47:59.786Z,103.90
2024-01-10T08:48:59.742Z,100.80
2024-01-10T08:49:59.617Z,95.80
2024-01-10T08:50:59.589Z,102.30
2024-01-10T08:51:59.573Z,98.90
2024-01-10T08:52:59.616Z,104.00
2024-01-10T08:53:59.609Z,103.90
2024-01-10T08:54:59.620Z,105.90
2024-01-10T08:55:59.600Z,105.90
2024-01-10T08:56:59.544Z,106.60
2024-01-10T08:57:59.566Z,110.10
2024-01-10T08:58:59.591Z,104.80
2024-01-10T08:59:59.502Z,104.00
2024-01-10T09:00:59.523Z,100.90
2024-01-10T09:01:59.483Z,106.30
2024-01-10T09:02:59.507Z,105.10
2024-01-10T09:03:59.570Z,111.80
2024-01-10T09:04:59.524Z,102.40
2024-01-10T09:06:05.396Z,103.90
2024-01-10T09:06:59.495Z,102.70
2024-01-10T09:07:59.546Z,102.20
2024-01-10T09:08:59.500Z,103.30
2024-01-10T09:09:59.430Z,108.90
2024-01-10T09:10:59.422Z,107.70
2024-01-10T09:11:59.433Z,101.50
2024-01-10T09:12:59.416Z,102.80
2024-01-10T09:13:59.405Z,105.60
2024-01-10T09:14:59.371Z,104.60
2024-01-10T09:15:59.396Z,105.60
2024-01-10T09:16:59.434Z,99.90
2024-01-10T09:17:59.452Z,116.10
2024-01-10T09:18:59.448Z,110.20
2024-01-10T09:19:59.384Z,103.90
2024-01-10T09:20:59.348Z,102.90
2024-01-10T09:21:59.313Z,101.40
2024-01-10T09:22:59.410Z,102.40
2024-01-10T09:23:59.675Z,106.00
2024-01-10T09:24:59.274Z,100.90
2024-01-10T09:25:59.278Z,98.80
2024-01-10T09:26:59.247Z,96.40
2024-01-10T09:27:59.256Z,108.60
2024-01-10T09:28:59.324Z,96.30
2024-01-10T09:29:59.235Z,100.60
2024-01-10T09:30:59.307Z,97.90
2024-01-10T09:31:59.254Z,101.30
2024-01-10T09:32:59.300Z,107.20
2024-01-10T09:33:59.272Z,99.60
2024-01-10T09:34:59.391Z,103.30
2024-01-10T09:36:01.356Z,98.30
2024-01-10T09:36:59.150Z,96.70
2024-01-10T09:37:59.182Z,96.00
2024-01-10T09:38:59.181Z,103.30
2024-01-10T09:39:59.166Z,99.70
2024-01-10T09:40:59.186Z,92.00
2024-01-10T09:41:59.119Z,97.40
2024-01-10T09:42:59.106Z,100.30
2024-01-10T09:43:59.159Z,94.70
2024-01-10T09:44:59.092Z,97.00
2024-01-10T09:45:59.061Z,97.40
2024-01-10T09:46:59.148Z,95.10
2024-01-10T09:47:59.243Z,94.30
2024-01-10T09:49:02.231Z,94.30
2024-01-10T09:49:59.136Z,98.10
2024-01-10T09:50:59.035Z,95.10
2024-01-10T09:51:59.015Z,99.20
2024-01-10T09:52:59.063Z,95.30
2024-01-10T09:53:59.016Z,101.10
2024-01-10T09:54:59.008Z,93.70
2024-01-10T09:55:59.012Z,96.90
2024-01-10T09:56:58.971Z,96.50
2024-01-10T09:57:58.996Z,97.90
2024-01-10T09:58:59.012Z,97.90
2024-01-10T09:59:58.960Z,92.20
2024-01-10T10:00:58.993Z,90.40
2024-01-10T10:01:59.023Z,94.00
2024-01-10T10:02:59.069Z,94.00
2024-01-10T10:03:58.917Z,91.20
2024-01-10T10:04:58.995Z,91.40
2024-01-10T10:05:59.011Z,88.70
2024-01-10T10:06:59.017Z,91.10
2024-01-10T10:07:59.012Z,87.50
2024-01-10T10:08:58.854Z,87.70
2024-01-10T10:09:58.892Z,88.80
2024-01-10T10:10:58.847Z,90.20
2024-01-10T10:11:58.856Z,84.80
2024-01-10T10:12:58.862Z,92.00
2024-01-10T10:13:58.856Z,87.50
2024-01-10T10:14:58.882Z,84.50
2024-01-10T10:15:58.800Z,85.00
2024-01-10T10:16:58.805Z,85.80
2024-01-10T10:17:58.880Z,88.30
2024-01-10T10:18:59.135Z,82.60
2024-01-10T10:19:58.855Z,85.80
2024-01-10T10:20:58.818Z,84.80
2024-01-10T10:21:58.753Z,79.40
2024-01-10T10:22:58.783Z,84.30
2024-01-10T10:23:58.730Z,91.20
2024-01-10T10:24:58.803Z,85.20
2024-01-10T10:25:58.737Z,81.60
2024-01-10T10:26:58.762Z,86.60
2024-01-10T10:27:58.696Z,85.90
2024-01-10T10:28:58.743Z,83.70
2024-01-10T10:29:58.681Z,82.90
2024-01-10T10:30:59.100Z,85.30
2024-01-10T10:31:58.738Z,85.20
2024-01-10T10:32:58.796Z,84.30
2024-01-10T10:33:58.688Z,81.60
2024-01-10T10:34:58.706Z,73.00
2024-01-10T10:35:58.647Z,76.60
2024-01-10T10:36:58.641Z,80.70
2024-01-10T10:37:58.637Z,77.40
2024-01-10T10:38:58.579Z,80.10
2024-01-10T10:39:58.617Z,77.60
2024-01-10T10:40:58.633Z,73.80
2024-01-10T10:41:58.552Z,78.30
2024-01-10T10:42:58.551Z,76.40
2024-01-10T10:43:58.566Z,79.70
2024-01-10T10:44:58.784Z,77.10
2024-01-10T10:45:58.563Z,70.80
2024-01-10T10:47:08.654Z,74.20
2024-01-10T10:47:58.671Z,73.20
2024-01-10T10:48:58.712Z,72.50
2024-01-10T10:49:58.605Z,70.50
2024-01-10T10:50:58.568Z,75.30
2024-01-10T10:51:58.551Z,69.00
2024-01-10T10:52:58.636Z,72.50
2024-01-10T10:53:58.567Z,75.60
2024-01-10T10:54:58.516Z,74.60
2024-01-10T10:55:58.494Z,70.00
2024-01-10T10:56:58.454Z,69.00
2024-01-10T10:58:04.809Z,71.30
2024-01-10T10:58:58.486Z,73.20
2024-01-10T10:59:58.485Z,72.60
2024-01-10T11:00:58.468Z,71.30
2024-01-10T11:01:58.429Z,74.20
2024-01-10T11:02:58.400Z,75.10
2024-01-10T11:03:58.461Z,72.80
2024-01-10T11:04:58.487Z,74.50
2024-01-10T11:05:58.455Z,72.50
2024-01-10T11:06:58.445Z,71.40
2024-01-10T11:07:58.391Z,74.00
2024-01-10T11:08:58.396Z,70.60
2024-01-10T11:09:58.346Z,74.50
2024-01-10T11:10:58.360Z,74.80
2024-01-10T11:11:58.297Z,75.70
2024-01-10T11:12:58.308Z,69.90
2024-01-10T11:13:58.461Z,67.70
2024-01-10T11:14:58.319Z,64.70
2024-01-10T11:15:58.259Z,69.30
2024-01-10T11:16:58.302Z,75.20
2024-01-10T11:17:58.329Z,70.30
2024-01-10T11:18:58.315Z,73.00
2024-01-10T11:19:58.268Z,70.40
2024-01-10T11:20:58.281Z,72.30
2024-01-10T11:21:58.223Z,70.30
2024-01-10T11:22:58.228Z,71.60
2024-01-10T11:23:58.193Z,66.90
2024-01-10T11:25:00.909Z,66.70
2024-01-10T11:25:58.163Z,69.50
2024-01-10T11:26:58.151Z,69.60
2024-01-10T11:28:03.569Z,75.00
2024-01-10T11:28:58.167Z,72.40
2024-01-10T11:29:58.241Z,67.70
2024-01-10T11:30:58.425Z,69.30
2024-01-10T11:31:58.157Z,66.20
2024-01-10T11:32:58.123Z,68.30
2024-01-10T11:33:58.138Z,65.10
2024-01-10T11:34:58.245Z,66.90
2024-01-10T11:36:01.200Z,67.10
2024-01-10T11:36:58.102Z,65.50
2024-01-10T11:37:58.078Z,60.30
2024-01-10T11:38:58.144Z,58.70
2024-01-10T11:39:58.052Z,61.90
2024-01-10T11:40:58.001Z,69.50
2024-01-10T11:41:58.001Z,68.00
2024-01-10T11:42:58.035Z,67.70
2024-01-10T11:43:57.983Z,65.10
2024-01-10T11:44:58.049Z,67.30
2024-01-10T11:45:57.957Z,63.60
2024-01-10T11:46:57.999Z,59.60
2024-01-10T11:47:57.993Z,63.80
2024-01-10T11:48:58.005Z,69.50
2024-01-10T11:49:58.049Z,64.50
2024-01-10T11:50:57.948Z,62.40
2024-01-10T11:51:57.925Z,65.90
2024-01-10T11:52:57.973Z,63.40
2024-01-10T11:53:57.879Z,62.30
2024-01-10T11:54:57.874Z,66.00
2024-01-10T11:55:57.899Z,65.10
2024-01-10T11:56:57.969Z,58.80
2024-01-10T11:57:57.836Z,63.40
2024-01-10T11:58:57.876Z,61.10
2024-01-10T11:59:57.878Z,60.70
2024-01-10T12:00:57.886Z,59.90
2024-01-10T12:01:57.840Z,56.20
2024-01-10T12:02:57.790Z,56.10
2024-01-10T12:04:10.136Z,56.50
2024-01-10T12:04:58.050Z,55.60
2024-01-10T12:05:57.871Z,52.00
2024-01-10T12:06:58.039Z,50.80
2024-01-10T12:07:57.805Z,50.90
2024-01-10T12:08:57.728Z,58.00
2024-01-10T12:09:57.753Z,56.10
2024-01-10T12:10:57.735Z,56.90
2024-01-10T12:11:57.698Z,54.80
2024-01-10T12:13:00.428Z,55.60
2024-01-10T12:13:57.762Z,56.90
2024-01-10T12:14:57.793Z,56.60
2024-01-10T12:15:57.706Z,54.70
2024-01-10T12:16:57.678Z,59.00
2024-01-10T12:17:57.729Z,54.60
2024-01-10T12:18:57.710Z,51.50
2024-01-10T12:19:57.720Z,55.40
2024-01-10T12:20:57.661Z,57.00
2024-01-10T12:21:57.612Z,52.60
2024-01-10T12:22:57.618Z,50.80
2024-01-10T12:23:57.585Z,51.40
2024-01-10T12:24:57.614Z,50.70
2024-01-10T12:25:57.624Z,55.20
2024-01-10T12:26:57.562Z,55.60
2024-01-10T12:27:57.571Z,53.60
2024-01-10T12:28:57.725Z,50.90
2024-01-10T12:29:57.575Z,48.90
2024-01-10T12:30:57.590Z,47.80
2024-01-10T12:31:57.585Z,47.80
2024-01-10T12:32:57.698Z,47.40
2024-01-10T12:33:57.750Z,49.40
2024-01-10T12:34:57.600Z,46.30
2024-01-10T12:35:57.562Z,49.60
2024-01-10T12:36:57.480Z,46.90
2024-01-10T12:37:57.596Z,49.50
2024-01-10T12:38:57.468Z,47.90
2024-01-10T12:39:57.535Z,47.70
2024-01-10T12:40:57.498Z,52.90
2024-01-10T12:41:57.477Z,45.40
2024-01-10T12:42:57.513Z,48.00
2024-01-10T12:43:57.454Z,52.80
2024-01-10T12:44:57.449Z,50.30
2024-01-10T12:45:57.418Z,51.00
2024-01-10T12:46:57.434Z,48.70
2024-01-10T12:47:57.539Z,52.30
2024-01-10T12:48:57.407Z,47.80